Time;durP1;ratioP1;P1;durP2;ratioP2;P2;SDS_P1;SDS_P2;PMS_P1;PMS_P2;Temp;Humidity;BMP_temperature;BMP_pressure;BME280_temperature;BME280_humidity;BME280_pressure;Samples;Min_cycle;Max_cycle;Signal;HPM_P1;HPM_P2
2021/07/23 06:08:54;;;;;;;1.65;0.30;;;;;;;20.92;55.83;96826.19;5019526;28;20060;-76
2021/07/23 06:11:20;;;;;;;0.10;0.10;;;;;;;21.04;55.64;96838.47;5017379;28;20057;-76
2021/07/23 06:13:46;;;;;;;0.10;0.10;;;;;;;21.10;55.79;96834.28;5014408;28;20370;-75
2021/07/23 06:16:13;;;;;;;0.10;0.10;;;;;;;21.32;55.48;96844.91;5018777;28;20454;-76
2021/07/23 06:18:39;;;;;;;0.45;0.45;;;;;;;21.48;55.03;96836.59;5024104;28;20388;-75
2021/07/23 06:21:08;;;;;;;0.17;0.17;;;;;;;21.43;55.06;96836.03;5020899;28;20408;-75
2021/07/23 06:23:34;;;;;;;0.10;0.10;;;;;;;21.22;55.95;96847.41;5025972;28;20048;-77
2021/07/23 06:33:29;;;;;;;0.10;0.10;;;;;;;20.86;56.43;96854.66;5029445;28;20582;-75
2021/07/23 06:36:35;;;;;;;0.10;0.10;;;;;;;21.08;55.67;96851.41;5032343;28;20066;-74
2021/07/23 06:39:40;;;;;;;0.70;0.30;;;;;;;21.27;55.26;96863.88;5027673;28;20037;-75
2021/07/23 06:42:46;;;;;;;0.10;0.10;;;;;;;21.31;55.08;96867.59;5019837;28;20034;-75
2021/07/23 06:52:38;;;;;;;0.10;0.10;;;;;;;22.48;52.81;96874.06;5019271;28;20051;-76
2021/07/23 07:02:30;;;;;;;0.10;0.10;;;;;;;22.07;53.97;96884.56;5008816;28;20085;-74
2021/07/23 07:05:35;;;;;;;0.13;0.13;;;;;;;22.08;53.79;96886.16;5015644;28;20046;-75
2021/07/23 07:12:04;;;;;;;0.10;0.10;;;;;;;22.90;52.23;96893.06;5026846;28;20048;-79
2021/07/23 07:15:10;;;;;;;0.10;0.10;;;;;;;23.10;51.92;96890.38;5036261;28;20048;-76
2021/07/23 07:18:15;;;;;;;0.00;0.00;;;;;;;23.27;51.44;96892.75;5036216;28;20050;-77
2021/07/23 07:21:21;;;;;;;0.35;0.35;;;;;;;23.25;51.37;96897.13;5036106;28;20511;-76
2021/07/23 07:24:26;;;;;;;4.38;0.82;;;;;;;23.32;51.67;96890.84;5026657;28;20057;-76
2021/07/23 07:30:55;;;;;;;0.10;0.10;;;;;;;23.44;51.43;96910.34;5027058;28;20068;-76
2021/07/23 07:34:01;;;;;;;0.10;0.10;;;;;;;23.38;51.55;96909.81;5023310;28;20046;-76
2021/07/23 07:37:06;;;;;;;0.17;0.17;;;;;;;23.37;51.49;96913.78;5024203;28;20038;-74
2021/07/23 07:40:12;;;;;;;0.10;0.10;;;;;;;23.46;51.00;96912.78;5023947;28;20038;-75
2021/07/23 07:43:17;;;;;;;0.10;0.10;;;;;;;23.66;50.94;96916.38;5025251;28;20033;-77
2021/07/23 07:46:23;;;;;;;0.20;0.20;;;;;;;23.74;50.35;96921.78;5023646;28;20084;-77
2021/07/23 07:49:28;;;;;;;0.28;0.10;;;;;;;23.74;50.57;96924.56;5023925;28;20389;-76
2021/07/23 07:52:34;;;;;;;0.10;0.10;;;;;;;23.59;50.90;96928.25;5024969;28;20100;-79
2021/07/23 07:55:39;;;;;;;0.10;0.10;;;;;;;23.58;50.97;96933.03;5023486;28;20042;-79
2021/07/23 07:58:45;;;;;;;0.10;0.10;;;;;;;23.60;50.63;96938.28;5024563;28;20033;-80
2021/07/23 08:01:50;;;;;;;0.00;0.00;;;;;;;23.43;50.79;96945.91;5024387;28;20046;-81
2021/07/23 08:04:55;;;;;;;0.10;0.10;;;;;;;23.19;51.31;96948.94;5022905;28;20595;-77
2021/07/23 08:08:03;;;;;;;0.10;0.10;;;;;;;23.43;50.67;96951.50;5025121;28;20076;-79
2021/07/23 08:11:08;;;;;;;0.10;0.10;;;;;;;23.66;50.07;96955.59;5024335;28;20508;-78
2021/07/23 08:14:14;;;;;;;0.30;0.20;;;;;;;23.88;49.87;96951.31;5022998;28;20045;-79
2021/07/23 08:17:19;;;;;;;0.10;0.10;;;;;;;24.04;49.58;96960.47;5022515;28;20046;-76
2021/07/23 08:20:25;;;;;;;0.10;0.10;;;;;;;23.94;49.45;96969.47;5025971;28;20033;-77
2021/07/23 08:23:30;;;;;;;0.10;0.10;;;;;;;23.93;49.55;96981.84;5025555;28;20045;-77
2021/07/23 08:30:02;;;;;;;0.20;0.20;;;;;;;24.04;49.21;96988.50;5021736;28;20044;-76
2021/07/23 08:33:20;;;;;;;0.63;0.47;;;;;;;23.92;49.73;96997.84;5022238;28;20038;-77
2021/07/23 08:36:25;;;;;;;0.10;0.10;;;;;;;23.92;49.62;97008.25;5023115;28;20128;-76
2021/07/23 08:39:31;;;;;;;0.55;0.28;;;;;;;23.88;49.45;97007.34;5025062;28;20038;-77
2021/07/23 08:42:22;;;;;;;0.10;0.10;;;;;;;23.96;49.32;97004.34;5035786;28;20038;-76
2021/07/23 08:55:38;;;;;;;0.45;0.20;;;;;;;23.83;49.44;96993.63;5022886;28;20115;-76
2021/07/23 09:01:56;;;;;;;0.10;0.10;;;;;;;23.85;49.13;97000.47;5022553;28;20544;-79
2021/07/23 09:05:07;;;;;;;0.10;0.10;;;;;;;23.94;49.23;97019.94;5021869;28;20061;-79
2021/07/23 09:08:13;;;;;;;0.20;0.20;;;;;;;24.03;48.62;97020.53;5021370;28;20054;-80
2021/07/23 09:11:22;;;;;;;0.47;0.20;;;;;;;23.80;48.98;97023.19;5021133;28;20037;-78
2021/07/23 09:14:30;;;;;;;0.20;0.20;;;;;;;23.52;49.69;97028.94;5020176;28;20127;-79
2021/07/23 09:17:35;;;;;;;0.10;0.10;;;;;;;23.53;49.46;97036.19;5023781;28;20076;-77
2021/07/23 09:20:42;;;;;;;0.30;0.30;;;;;;;23.49;49.49;97035.28;5023003;28;20044;-77
2021/07/23 09:23:50;;;;;;;0.10;0.10;;;;;;;23.65;49.51;97029.66;5022494;28;20059;-76
2021/07/23 09:34:07;;;;;;;0.23;0.23;;;;;;;23.84;48.83;97034.47;5019444;28;20467;-76
2021/07/23 09:44:18;;;;;;;0.10;0.10;;;;;;;24.01;48.52;97042.47;5014309;28;20048;-79
2021/07/23 09:47:24;;;;;;;0.10;0.10;;;;;;;24.03;48.32;97048.56;5016354;28;20041;-75
2021/07/23 09:50:30;;;;;;;2.50;0.95;;;;;;;24.10;48.17;97040.28;5011828;28;20037;-75
2021/07/23 09:53:35;;;;;;;0.10;0.10;;;;;;;24.12;48.17;97040.72;5011440;28;20399;-76
2021/07/23 09:56:40;;;;;;;0.65;0.57;;;;;;;24.06;48.24;97042.22;5011928;28;20038;-75
2021/07/23 09:59:48;;;;;;;0.17;0.17;;;;;;;24.04;48.18;97050.19;5013462;28;20480;-75
2021/07/23 10:06:16;;;;;;;0.13;0.13;;;;;;;23.84;48.50;97062.50;5031777;28;20092;-78
2021/07/23 13:34:23;;;;;;;0.10;0.10;;;;;;;21.30;49.48;97058.56;4988369;28;20096;-71
2021/07/23 13:37:00;;;;;;;0.17;0.10;;;;;;;21.31;49.15;97049.03;5051070;28;20052;-77
2021/07/23 13:39:40;;;;;;;0.10;0.10;;;;;;;21.27;49.38;97054.50;5053421;28;20049;-76
2021/07/23 13:42:09;;;;;;;0.20;0.20;;;;;;;21.24;49.35;97052.41;5052310;28;20446;-70
2021/07/23 13:44:36;;;;;;;0.30;0.30;;;;;;;21.21;49.44;97052.31;5053649;28;20037;-72
2021/07/23 13:47:05;;;;;;;0.10;0.10;;;;;;;21.21;49.39;97057.88;5052691;28;20095;-69
2021/07/23 13:49:32;;;;;;;0.10;0.10;;;;;;;21.22;49.43;97053.94;5035168;28;20037;-75
2021/07/23 13:51:58;;;;;;;0.10;0.10;;;;;;;21.25;49.37;97058.81;5052347;28;20056;-72
2021/07/23 13:54:23;;;;;;;0.10;0.10;;;;;;;21.27;49.34;97051.69;5053310;28;20071;-74
2021/07/23 13:56:49;;;;;;;0.20;0.20;;;;;;;21.26;49.26;97052.88;5051889;28;20071;-76
2021/07/23 13:59:16;;;;;;;0.10;0.10;;;;;;;21.21;49.63;97044.72;5035733;28;20044;-80
2021/07/23 14:01:42;;;;;;;0.10;0.10;;;;;;;21.21;49.60;97049.50;5047961;28;20053;-74
2021/07/23 14:04:09;;;;;;;0.10;0.10;;;;;;;21.22;49.41;97049.16;5032316;28;20071;-76
2021/07/23 14:06:34;;;;;;;0.10;0.10;;;;;;;21.23;49.70;97055.53;5032248;28;20076;-74
2021/07/23 14:09:00;;;;;;;0.20;0.20;;;;;;;21.33;49.20;97052.28;5030620;28;20037;-76
2021/07/23 14:11:26;;;;;;;0.10;0.10;;;;;;;21.43;49.01;97040.66;5030818;28;20044;-80
2021/07/23 14:13:53;;;;;;;0.10;0.10;;;;;;;21.51;49.25;97050.94;5032628;28;20508;-81
2021/07/23 14:16:19;;;;;;;0.30;0.30;;;;;;;21.57;48.96;97045.09;5030564;28;20041;-75
2021/07/23 14:18:46;;;;;;;0.10;0.10;;;;;;;21.54;49.11;97043.84;5012522;28;20512;-74
2021/07/23 14:21:12;;;;;;;0.65;0.65;;;;;;;21.47;49.18;97044.38;5011891;28;20038;-74
2021/07/23 14:23:38;;;;;;;0.10;0.10;;;;;;;21.38;49.47;97051.25;5031667;28;20041;-73
2021/07/23 14:26:04;;;;;;;0.17;0.17;;;;;;;21.34;49.57;97051.94;5032411;28;20527;-73
2021/07/23 14:28:29;;;;;;;0.10;0.10;;;;;;;21.37;49.29;97041.25;5032246;28;20195;-76
2021/07/23 14:30:55;;;;;;;0.10;0.10;;;;;;;21.37;49.28;97046.84;5032673;28;20048;-74
2021/07/23 14:33:21;;;;;;;0.10;0.10;;;;;;;21.27;49.73;97046.13;5032165;28;20091;-78
2021/07/23 14:35:46;;;;;;;0.17;0.17;;;;;;;21.30;49.58;97037.06;5032901;28;20132;-75
2021/07/23 14:38:12;;;;;;;0.10;0.10;;;;;;;21.39;49.34;97034.13;5032627;28;20077;-74
2021/07/23 14:40:38;;;;;;;0.98;0.20;;;;;;;21.43;49.09;97023.09;5032585;28;20444;-75
2021/07/23 14:43:04;;;;;;;0.10;0.10;;;;;;;21.27;49.65;97026.59;5031275;28;20056;-76
2021/07/23 14:45:30;;;;;;;0.20;0.20;;;;;;;21.22;49.81;97038.00;5032469;28;20041;-75
2021/07/23 14:47:57;;;;;;;0.30;0.30;;;;;;;21.12;49.62;97025.31;5032448;28;20045;-78
2021/07/23 14:50:23;;;;;;;0.35;0.35;;;;;;;20.96;50.31;97033.53;5032413;28;20048;-76
2021/07/23 14:52:49;;;;;;;0.22;0.22;;;;;;;20.82;50.38;97035.88;5042587;28;20408;-74
2021/07/23 14:55:15;;;;;;;0.10;0.10;;;;;;;20.69;50.53;97028.63;5039231;28;20049;-73
2021/07/23 14:57:41;;;;;;;0.20;0.20;;;;;;;20.58;50.97;97029.03;5034819;28;20129;-77
2021/07/23 15:00:07;;;;;;;0.10;0.10;;;;;;;20.50;51.03;97018.78;5032229;28;20414;-79
2021/07/23 15:02:36;;;;;;;0.70;0.22;;;;;;;20.41;51.12;97018.88;5032703;28;20056;-78
2021/07/23 15:05:03;;;;;;;0.73;0.73;;;;;;;20.31;51.44;97024.88;5032228;28;20107;-73
2021/07/23 15:07:29;;;;;;;0.20;0.20;;;;;;;20.15;51.71;97021.91;5031646;28;20080;-78
2021/07/23 15:09:54;;;;;;;0.15;0.15;;;;;;;20.01;51.90;97027.78;5032149;28;20041;-77
2021/07/23 15:12:20;;;;;;;0.20;0.20;;;;;;;19.87;52.32;97028.03;5031554;28;20049;-74
2021/07/23 15:14:46;;;;;;;0.20;0.20;;;;;;;19.72;52.65;97037.78;5031941;28;20041;-72
2021/07/23 15:17:13;;;;;;;0.20;0.20;;;;;;;19.58;52.73;97038.06;5031906;28;20045;-73
2021/07/23 15:19:38;;;;;;;0.10;0.10;;;;;;;19.47;53.07;97044.34;5031476;28;20033;-77
2021/07/23 15:22:05;;;;;;;0.40;0.40;;;;;;;19.34;53.27;97038.66;5032188;28;20459;-77
2021/07/23 15:24:32;;;;;;;0.85;0.30;;;;;;;19.24;53.68;97045.44;5043513;28;20045;-76
2021/07/23 15:27:00;;;;;;;0.10;0.10;;;;;;;19.15;53.71;97035.50;5051564;28;20049;-73
2021/07/23 15:29:26;;;;;;;0.10;0.10;;;;;;;19.06;53.80;97047.47;5055124;28;20491;-73
2021/07/23 15:31:55;;;;;;;0.15;0.15;;;;;;;18.99;53.75;97058.31;5054964;28;20049;-69
2021/07/23 15:34:21;;;;;;;3.40;0.40;;;;;;;18.96;53.96;97066.50;5055399;28;20043;-70
2021/07/23 15:36:47;;;;;;;0.10;0.10;;;;;;;18.85;54.23;97077.16;5055148;28;20048;-73
2021/07/23 15:39:13;;;;;;;0.20;0.20;;;;;;;18.73;54.50;97080.63;5054756;28;20041;-70
2021/07/23 15:41:39;;;;;;;0.20;0.20;;;;;;;18.60;54.72;97087.19;5054620;28;20088;-73
2021/07/23 15:44:06;;;;;;;0.32;0.32;;;;;;;18.45;54.96;97075.44;5054569;28;20041;-72
2021/07/23 15:46:33;;;;;;;0.10;0.10;;;;;;;18.31;55.34;97081.16;5054822;28;20484;-72
2021/07/23 15:48:59;;;;;;;0.20;0.20;;;;;;;18.17;55.60;97081.34;5054523;28;20056;-71
2021/07/23 15:51:25;;;;;;;0.20;0.20;;;;;;;18.09;55.75;97081.34;5054596;28;20045;-71
2021/07/23 15:53:52;;;;;;;0.43;0.43;;;;;;;18.02;55.97;97088.19;5054959;28;20415;-75
2021/07/23 15:56:20;;;;;;;1.45;0.77;;;;;;;17.94;56.22;97077.09;5054642;28;20087;-73
2021/07/23 15:58:46;;;;;;;0.25;0.25;;;;;;;17.82;56.29;97086.03;5054057;28;20507;-72
2021/07/23 16:01:13;;;;;;;0.50;0.50;;;;;;;17.71;56.64;97081.91;5052956;28;20041;-71
2021/07/23 16:03:39;;;;;;;0.13;0.13;;;;;;;17.57;56.95;97084.84;5034536;28;20091;-76
2021/07/23 16:06:09;;;;;;;0.88;0.52;;;;;;;17.45;57.21;97080.72;5034452;28;20046;-71
2021/07/23 16:08:35;;;;;;;0.75;0.55;;;;;;;17.36;57.37;97085.44;5034063;28;20499;-73
2021/07/23 16:11:01;;;;;;;0.57;0.57;;;;;;;17.26;57.47;97083.75;5033793;28;20084;-74
2021/07/23 16:13:27;;;;;;;0.73;0.15;;;;;;;17.14;57.83;97081.59;5034079;28;20100;-71
2021/07/23 16:15:52;;;;;;;0.63;0.63;;;;;;;17.04;58.06;97090.19;5034426;28;20516;-69
2021/07/23 16:18:18;;;;;;;0.20;0.20;;;;;;;16.95;58.23;97092.94;5033929;28;20041;-70
2021/07/23 16:20:44;;;;;;;0.82;0.70;;;;;;;16.89;58.46;97090.63;5033987;28;20067;-68
2021/07/23 16:23:10;;;;;;;0.47;0.22;;;;;;;16.80;58.60;97096.09;5033840;28;20517;-72
2021/07/23 16:25:36;;;;;;;0.85;0.85;;;;;;;16.73;58.65;97084.66;5033269;28;20045;-73
2021/07/23 16:28:03;;;;;;;0.20;0.20;;;;;;;16.65;58.68;97083.44;5046121;28;20041;-74
2021/07/23 16:30:29;;;;;;;0.40;0.40;;;;;;;16.57;58.91;97078.69;5052350;28;20045;-74
2021/07/23 16:32:55;;;;;;;0.10;0.10;;;;;;;16.51;58.74;97088.25;5047472;28;20095;-75
2021/07/23 16:35:20;;;;;;;0.30;0.30;;;;;;;16.48;58.87;97089.69;5052212;28;20053;-72
2021/07/23 16:37:46;;;;;;;0.22;0.22;;;;;;;16.40;58.94;97088.50;5052577;28;20204;-76
2021/07/23 16:40:13;;;;;;;0.22;0.22;;;;;;;16.39;59.02;97078.56;5051834;28;20041;-71
2021/07/23 16:42:39;;;;;;;0.20;0.20;;;;;;;16.32;59.10;97089.25;5051532;28;20071;-71
2021/07/23 16:45:06;;;;;;;0.20;0.20;;;;;;;16.28;59.36;97091.00;5052123;28;20507;-71
2021/07/23 16:47:32;;;;;;;0.20;0.20;;;;;;;16.24;59.39;97090.03;5052118;28;20044;-76
2021/07/23 16:49:59;;;;;;;0.20;0.20;;;;;;;16.18;59.76;97086.56;5051910;28;20036;-71
2021/07/23 16:52:24;;;;;;;0.65;0.50;;;;;;;16.15;59.51;97094.66;5051864;28;20052;-72
2021/07/23 16:54:50;;;;;;;0.20;0.20;;;;;;;16.10;59.97;97093.66;5054186;28;20396;-74
2021/07/23 16:57:16;;;;;;;0.10;0.10;;;;;;;16.05;59.97;97096.56;5061191;28;20036;-70
2021/07/23 16:59:42;;;;;;;0.10;0.10;;;;;;;16.03;59.97;97090.53;5057605;28;20476;-69
2021/07/23 17:02:08;;;;;;;0.30;0.30;;;;;;;16.01;60.09;97100.25;5051862;28;20041;-74
2021/07/23 17:04:34;;;;;;;0.20;0.20;;;;;;;15.97;60.14;97096.47;5041032;28;20045;-74
2021/07/23 17:07:00;;;;;;;0.20;0.20;;;;;;;15.90;60.17;97096.88;5042082;28;20534;-70
2021/07/23 17:09:26;;;;;;;0.13;0.13;;;;;;;15.85;60.36;97105.31;5050287;28;20036;-73
2021/07/23 17:11:52;;;;;;;0.40;0.40;;;;;;;15.81;60.41;97109.84;5033392;28;20163;-72
2021/07/23 17:14:18;;;;;;;0.28;0.28;;;;;;;15.77;60.59;97110.44;5050749;28;20033;-77
2021/07/23 17:16:44;;;;;;;0.17;0.17;;;;;;;15.73;60.67;97103.88;5051406;28;20033;-74
2021/07/23 17:19:10;;;;;;;0.20;0.20;;;;;;;15.70;60.82;97096.19;5051144;28;20128;-76
2021/07/23 17:21:36;;;;;;;0.10;0.10;;;;;;;15.66;61.03;97099.91;5051484;28;20090;-73
2021/07/23 17:24:03;;;;;;;1.25;1.05;;;;;;;15.63;61.19;97106.06;5052037;28;20040;-72
2021/07/23 17:26:29;;;;;;;0.20;0.20;;;;;;;15.56;61.00;97103.69;5065779;28;20384;-75
2021/07/23 17:28:55;;;;;;;0.38;0.38;;;;;;;15.55;61.13;97115.91;5072633;28;20043;-73
2021/07/23 17:31:21;;;;;;;0.10;0.10;;;;;;;15.52;61.17;97114.56;5072574;28;20550;-72
2021/07/23 17:33:47;;;;;;;0.30;0.30;;;;;;;15.48;61.17;97119.06;5072633;28;20131;-74
2021/07/23 17:36:12;;;;;;;0.30;0.30;;;;;;;15.45;61.40;97116.13;5072387;28;20052;-73
2021/07/23 17:38:39;;;;;;;0.10;0.10;;;;;;;15.40;61.52;97112.31;5072908;28;20052;-75
2021/07/23 17:41:09;;;;;;;0.20;0.20;;;;;;;15.37;61.67;97107.41;5072456;28;20048;-75
2021/07/23 17:43:38;;;;;;;0.30;0.30;;;;;;;15.37;61.75;97112.09;5073276;28;20396;-72
2021/07/23 17:48:32;;;;;;;0.40;0.40;;;;;;;15.36;61.77;97100.22;5072365;28;20108;-71
2021/07/23 17:50:58;;;;;;;0.10;0.10;;;;;;;15.37;61.68;97103.81;5053524;28;20398;-72
2021/07/23 17:53:24;;;;;;;4.68;0.73;;;;;;;15.34;61.81;97113.56;5037193;28;20041;-70
2021/07/23 17:55:49;;;;;;;0.10;0.10;;;;;;;15.29;61.66;97116.41;5042922;28;20041;-69
2021/07/23 17:58:15;;;;;;;0.10;0.10;;;;;;;15.24;62.06;97114.56;5050564;28;20037;-71
2021/07/23 18:00:42;;;;;;;0.20;0.20;;;;;;;15.20;62.21;97109.97;5050090;28;20420;-68
2021/07/23 18:03:09;;;;;;;0.15;0.15;;;;;;;15.16;62.26;97106.97;5045219;28;20561;-71
2021/07/23 18:05:36;;;;;;;0.10;0.10;;;;;;;15.14;62.43;97114.78;5050639;28;20037;-69
2021/07/23 18:08:02;;;;;;;0.45;0.32;;;;;;;15.12;62.48;97110.66;5050364;28;20491;-71
2021/07/23 18:10:28;;;;;;;0.10;0.10;;;;;;;15.07;62.33;97111.59;5029084;28;20044;-69
2021/07/23 18:12:55;;;;;;;0.30;0.30;;;;;;;15.01;62.80;97116.41;5039967;28;20033;-71
2021/07/23 18:15:23;;;;;;;0.20;0.20;;;;;;;14.99;62.55;97129.72;5040118;28;20564;-70
2021/07/23 18:17:49;;;;;;;0.20;0.20;;;;;;;14.96;62.62;97141.38;5047333;28;20041;-67
2021/07/23 18:20:16;;;;;;;0.50;0.50;;;;;;;14.91;63.00;97144.22;5068654;28;20052;-69
2021/07/23 18:22:43;;;;;;;0.38;0.38;;;;;;;14.86;63.05;97134.09;5071308;28;20032;-69
2021/07/23 18:25:11;;;;;;;0.80;0.35;;;;;;;14.84;62.97;97127.22;5060108;28;20036;-71
2021/07/23 18:27:37;;;;;;;0.20;0.20;;;;;;;14.84;63.30;97133.56;5072191;28;20090;-67
2021/07/23 18:30:05;;;;;;;0.40;0.40;;;;;;;14.85;63.36;97128.84;5072276;28;20464;-68
2021/07/23 18:32:31;;;;;;;0.30;0.30;;;;;;;14.86;63.09;97138.78;5071672;28;20471;-69
2021/07/23 18:34:57;;;;;;;0.20;0.20;;;;;;;14.86;63.27;97139.59;5071974;28;20044;-70
2021/07/23 18:37:22;;;;;;;0.20;0.20;;;;;;;14.85;63.13;97135.19;5071902;28;20037;-69
2021/07/23 18:39:49;;;;;;;0.45;0.45;;;;;;;14.85;63.25;97142.69;5071802;28;20128;-71
2021/07/23 18:42:15;;;;;;;0.52;0.40;;;;;;;14.81;63.27;97138.88;5071213;28;20127;-72
2021/07/23 18:44:41;;;;;;;0.20;0.20;;;;;;;14.77;63.37;97137.88;5072013;28;20036;-72
2021/07/23 18:47:07;;;;;;;0.20;0.20;;;;;;;14.74;63.48;97139.28;5072108;28;20560;-67
2021/07/23 18:49:37;;;;;;;0.28;0.28;;;;;;;14.73;63.55;97132.09;5071592;28;20063;-68
2021/07/23 18:52:04;;;;;;;0.20;0.20;;;;;;;14.71;63.87;97134.38;5071628;28;20044;-67
2021/07/23 18:54:31;;;;;;;0.10;0.10;;;;;;;14.70;63.79;97138.25;5071634;28;20048;-70
2021/07/23 18:56:57;;;;;;;0.20;0.20;;;;;;;14.69;63.64;97136.59;5071983;28;20086;-70
2021/07/23 18:59:26;;;;;;;0.10;0.10;;;;;;;14.69;63.72;97142.97;5076483;28;20082;-71
2021/07/23 19:01:53;;;;;;;0.10;0.10;;;;;;;14.68;63.69;97155.13;5090400;28;20051;-69
2021/07/23 19:04:18;;;;;;;0.30;0.30;;;;;;;14.67;63.78;97150.72;5084502;28;20040;-67
2021/07/23 19:06:44;;;;;;;0.20;0.20;;;;;;;14.64;63.95;97143.03;5075394;28;20047;-71
2021/07/23 19:09:10;;;;;;;0.30;0.30;;;;;;;14.61;64.19;97143.63;5075538;28;20115;-67
2021/07/23 19:11:35;;;;;;;0.10;0.10;;;;;;;14.60;64.31;97141.97;5069207;28;20125;-76
2021/07/23 19:14:02;;;;;;;0.35;0.35;;;;;;;14.59;64.08;97139.50;5065746;28;20450;-76
2021/07/23 19:16:28;;;;;;;0.32;0.32;;;;;;;14.57;64.48;97145.31;5070896;28;20067;-76
2021/07/23 19:18:54;;;;;;;0.10;0.10;;;;;;;14.55;64.23;97145.63;5056197;28;20491;-78
2021/07/23 19:21:20;;;;;;;0.38;0.38;;;;;;;14.52;64.55;97153.72;5055856;28;20045;-76
2021/07/23 19:23:46;;;;;;;0.20;0.20;;;;;;;14.48;64.76;97153.47;5055572;28;20495;-76
2021/07/23 19:26:11;;;;;;;0.10;0.10;;;;;;;14.44;64.68;97152.47;5058361;28;20037;-77
2021/07/23 19:28:37;;;;;;;0.43;0.32;;;;;;;14.37;64.76;97152.84;5073051;28;20499;-72
2021/07/23 19:31:03;;;;;;;0.30;0.30;;;;;;;14.35;64.92;97148.72;5039590;28;20049;-74
2021/07/23 19:33:28;;;;;;;0.70;0.50;;;;;;;14.31;64.86;97143.00;5055082;28;20131;-79
2021/07/23 19:35:55;;;;;;;0.32;0.32;;;;;;;14.29;65.33;97142.44;5075456;28;20188;-75
2021/07/23 19:38:21;;;;;;;0.10;0.10;;;;;;;14.27;65.27;97150.22;5075523;28;20045;-77
2021/07/23 19:40:47;;;;;;;0.10;0.10;;;;;;;14.26;65.09;97148.56;5075928;28;20041;-76
2021/07/23 19:43:12;;;;;;;0.20;0.20;;;;;;;14.26;65.21;97145.81;5070696;28;20044;-75
2021/07/23 19:45:38;;;;;;;0.10;0.10;;;;;;;14.25;65.35;97146.13;5055379;28;20041;-77
2021/07/23 19:48:04;;;;;;;0.45;0.20;;;;;;;14.23;65.50;97145.63;5055858;28;20036;-78
2021/07/23 19:50:29;;;;;;;0.20;0.20;;;;;;;14.22;65.39;97143.97;5056230;28;20052;-79
2021/07/23 19:52:55;;;;;;;0.13;0.13;;;;;;;14.19;65.40;97145.38;5055626;28;20531;-76
2021/07/23 19:55:21;;;;;;;0.10;0.10;;;;;;;14.17;65.76;97142.09;5055867;28;20131;-74
2021/07/23 19:57:47;;;;;;;0.25;0.25;;;;;;;14.17;65.56;97147.63;5055407;28;20094;-73
2021/07/23 20:00:14;;;;;;;0.30;0.30;;;;;;;14.14;65.62;97143.50;5055189;28;20044;-75
2021/07/23 20:02:40;;;;;;;0.20;0.20;;;;;;;14.11;65.86;97144.13;5054990;28;20037;-73
2021/07/23 20:05:06;;;;;;;0.17;0.17;;;;;;;14.10;66.03;97138.91;5055138;28;20406;-74
2021/07/23 20:07:32;;;;;;;0.10;0.10;;;;;;;14.07;65.86;97134.78;5054948;28;20052;-74
2021/07/23 20:09:58;;;;;;;0.20;0.20;;;;;;;14.06;65.86;97146.13;5055542;28;20048;-74
2021/07/23 20:12:23;;;;;;;0.13;0.13;;;;;;;14.05;66.16;97139.00;5054184;28;20049;-74
2021/07/23 20:14:49;;;;;;;0.10;0.10;;;;;;;14.03;65.91;97144.81;5053839;28;20091;-74
2021/07/23 20:17:15;;;;;;;0.25;0.20;;;;;;;14.04;65.97;97143.66;5054812;28;20048;-74
2021/07/23 20:19:40;;;;;;;0.30;0.30;;;;;;;14.01;66.17;97142.31;5054625;28;20057;-74
2021/07/23 20:22:06;;;;;;;0.28;0.20;;;;;;;14.01;66.41;97131.28;5054482;28;20044;-74
2021/07/23 20:24:32;;;;;;;0.55;0.20;;;;;;;13.99;66.28;97139.03;5054652;28;20044;-74
2021/07/23 20:26:58;;;;;;;0.17;0.17;;;;;;;13.94;66.29;97139.13;5054196;28;20045;-75
2021/07/23 20:29:23;;;;;;;0.68;0.55;;;;;;;13.94;66.39;97139.13;5054405;28;20095;-74
2021/07/23 20:31:49;;;;;;;0.17;0.17;;;;;;;13.91;66.70;97145.22;5054187;28;20510;-74
2021/07/23 20:34:21;;;;;;;0.10;0.10;;;;;;;13.86;66.81;97145.31;5054157;28;20044;-74
2021/07/23 20:36:47;;;;;;;0.20;0.20;;;;;;;13.85;66.62;97146.41;5054288;28;20055;-75
2021/07/23 20:39:14;;;;;;;0.13;0.13;;;;;;;13.83;66.83;97145.91;5054084;28;20492;-74
2021/07/23 20:41:39;;;;;;;0.20;0.20;;;;;;;13.81;67.06;97148.16;5053890;28;20472;-75
2021/07/23 20:44:05;;;;;;;0.55;0.30;;;;;;;13.78;67.03;97151.47;5054142;28;20095;-72
2021/07/23 20:46:31;;;;;;;1.02;0.30;;;;;;;13.77;67.12;97147.91;5053707;28;20098;-73
2021/07/23 20:48:57;;;;;;;0.20;0.20;;;;;;;13.75;66.96;97146.56;5053867;28;20044;-74
2021/07/23 20:51:23;;;;;;;0.17;0.17;;;;;;;13.75;67.09;97146.56;5053957;28;20102;-73
2021/07/23 20:53:48;;;;;;;4.57;1.13;;;;;;;13.74;67.22;97147.69;5053932;28;20522;-74
2021/07/23 20:56:16;;;;;;;0.20;0.20;;;;;;;13.74;67.31;97151.25;5053792;28;20040;-76
2021/07/23 20:58:42;;;;;;;0.55;0.30;;;;;;;13.76;67.02;97137.16;5053607;28;20037;-73
2021/07/23 21:01:08;;;;;;;0.10;0.10;;;;;;;13.80;67.29;97141.78;5053959;28;20074;-74
2021/07/23 21:03:33;;;;;;;0.10;0.10;;;;;;;13.83;67.14;97155.00;5054298;28;20037;-73
2021/07/23 21:06:00;;;;;;;0.20;0.20;;;;;;;13.83;67.15;97148.66;5056777;28;20045;-74
2021/07/23 21:08:30;;;;;;;0.85;0.50;;;;;;;13.84;67.00;97148.38;5070185;28;20048;-73
2021/07/23 21:10:57;;;;;;;0.10;0.10;;;;;;;13.87;66.92;97146.97;5054413;28;20143;-77
2021/07/23 21:13:23;;;;;;;0.20;0.20;;;;;;;13.88;67.00;97154.09;5053984;28;20041;-76
2021/07/23 21:15:48;;;;;;;0.35;0.35;;;;;;;13.88;66.98;97150.53;5053347;28;20036;-73
2021/07/23 21:18:14;;;;;;;0.10;0.10;;;;;;;13.87;67.29;97151.63;5053668;28;20521;-74
2021/07/23 21:20:43;;;;;;;0.85;0.25;;;;;;;13.88;67.08;97145.81;5055938;28;20092;-75
2021/07/23 21:23:08;;;;;;;0.25;0.25;;;;;;;13.86;67.16;97152.78;5066831;28;20098;-74
2021/07/23 21:25:34;;;;;;;0.22;0.22;;;;;;;13.84;67.40;97147.56;5053029;28;20040;-74
2021/07/23 21:28:00;;;;;;;0.30;0.30;;;;;;;13.84;67.50;97144.78;5053240;28;20044;-74
2021/07/23 21:30:26;;;;;;;0.17;0.17;;;;;;;13.83;67.27;97137.63;5073534;28;20068;-74
2021/07/23 21:32:51;;;;;;;0.20;0.20;;;;;;;13.84;67.50;97142.03;5072874;28;20041;-73
2021/07/23 21:35:17;;;;;;;0.25;0.25;;;;;;;13.82;67.60;97139.56;5073282;28;20087;-74
2021/07/23 21:37:43;;;;;;;0.10;0.10;;;;;;;13.82;67.67;97138.75;5073618;28;20040;-75
2021/07/23 21:40:09;;;;;;;0.10;0.10;;;;;;;13.82;67.53;97130.47;5073155;28;20048;-74
2021/07/23 21:42:35;;;;;;;0.20;0.20;;;;;;;13.81;67.45;97139.88;5072453;28;20044;-73
2021/07/23 21:45:01;;;;;;;0.20;0.20;;;;;;;13.84;67.49;97137.34;5073205;28;20513;-74
2021/07/23 21:47:26;;;;;;;0.20;0.20;;;;;;;13.91;67.37;97144.41;5073302;28;20044;-74
2021/07/23 21:49:52;;;;;;;0.30;0.30;;;;;;;13.97;67.14;97138.53;5073116;28;20532;-72
2021/07/23 21:52:18;;;;;;;0.20;0.20;;;;;;;14.04;67.06;97142.84;5072688;28;20055;-73
2021/07/23 21:54:43;;;;;;;0.30;0.30;;;;;;;14.09;67.24;97140.84;5072240;28;20102;-73
2021/07/23 21:57:09;;;;;;;0.47;0.47;;;;;;;14.14;67.10;97139.94;5071514;28;20098;-72
2021/07/23 21:59:35;;;;;;;0.17;0.17;;;;;;;14.14;66.99;97132.47;5052865;28;20491;-73
2021/07/23 22:02:00;;;;;;;0.20;0.20;;;;;;;14.18;66.76;97141.00;5052490;28;20147;-73
2021/07/23 22:04:26;;;;;;;0.20;0.20;;;;;;;14.17;67.00;97137.41;5052376;28;20045;-73
2021/07/23 22:06:53;;;;;;;0.25;0.25;;;;;;;14.15;67.30;97142.41;5052763;28;20045;-73
2021/07/23 22:09:19;;;;;;;0.68;0.50;;;;;;;14.07;67.37;97136.75;5052366;28;20037;-72
2021/07/23 22:11:45;;;;;;;0.35;0.35;;;;;;;13.94;67.93;97128.09;5051823;28;20045;-74
2021/07/23 22:14:10;;;;;;;0.22;0.22;;;;;;;13.83;68.17;97143.94;5052643;28;20507;-76
2021/07/23 22:16:36;;;;;;;0.20;0.20;;;;;;;13.76;68.38;97143.50;5052876;28;20053;-77
2021/07/23 22:19:02;;;;;;;0.30;0.30;;;;;;;13.72;68.59;97141.63;5052861;28;20148;-77
2021/07/23 22:21:28;;;;;;;0.60;0.57;;;;;;;13.70;68.53;97143.88;5052699;28;20491;-77
2021/07/23 22:23:53;;;;;;;0.10;0.10;;;;;;;13.66;68.44;97140.88;5052206;28;20482;-77
2021/07/23 22:26:19;;;;;;;1.75;0.55;;;;;;;13.63;68.57;97142.31;5052533;28;20037;-76
2021/07/23 22:28:45;;;;;;;0.20;0.20;;;;;;;13.60;68.61;97147.56;5052638;28;20046;-76
2021/07/23 22:31:10;;;;;;;0.45;0.45;;;;;;;13.56;68.76;97144.59;5051419;28;20479;-72
2021/07/23 22:33:36;;;;;;;0.20;0.20;;;;;;;13.54;68.88;97148.78;5034413;28;20052;-73
2021/07/23 22:36:02;;;;;;;0.15;0.15;;;;;;;13.50;68.92;97151.31;5052451;28;20098;-74
2021/07/23 22:38:28;;;;;;;1.98;0.50;;;;;;;13.47;69.01;97160.13;5056663;28;20087;-74
2021/07/23 22:40:55;;;;;;;0.20;0.20;;;;;;;13.42;68.93;97149.19;5056666;28;20044;-75